Mead, WA

8:39 AM PST on February 09, 2016 (GMT -0800)
Little Spokane/Lantern Lane | | Change Station
CLOSE
Current Station
Personal Weather Station
Location: Spokane, WA
Elevation: 1667 ft
Nearby Weather Stations

Elev 1667 ft 47.80 °N, 117.38 °W | Updated 6 seconds ago

Clear
Clear
25.9 °F
Feels Like 26 °F
N
0.0
Wind Variable Wind from WNW
Gusts 0.0 mph

Today
High -- | Low -- °F
--% Chance of Precip.
Yesterday
High -- | Low -- °F
Precip. -- in
Pressure 30.52 in
Visibility 8.0 miles
Clouds Clear
Windchill 26 °F
Dew Point 21 °F
Humidity 82%
Rainfall 0.00 in
Snow Depth Not available.
7:05 AM 5:02 PM
New Moon, 2% visible
METAR KSFF 091553Z 00000KT 8SM CLR M01/M03 A3047 RMK AO2 SLP334 T10111028
Pressure 30.52 in
Visibility 8.0 miles
Clouds Clear
Windchill 26 °F
Dew Point 21 °F
Humidity 82%
Rainfall 0.00 in
Snow Depth Not available.
7:05 AM 5:02 PM
New Moon, 2% visible
METAR KSFF 091553Z 00000KT 8SM CLR M01/M03 A3047 RMK AO2 SLP334 T10111028

10-Day Weather Forecast

Almanac

Astronomy

Feb. 09, 2016 Rise Set
Actual Time
Civil Twilight
Nautical Twilight
Astronomical Twilight
Moon
Length of Visible Light
Length of Day
Tomorrow will be .
, % of the Moon is Illuminated

Today's Extremes

State Highs State Lows

Community

WunderPhotos

Upload Photos

1,891,630 photos uploaded!

WunderBlog® & News

Nearby

Air Quality

  Air Quality AQ Index Pollutant
Not available.

Snow Depth

Station Depth Elevation

Earthquake Activity

City Distance Mag. Time & Date
Minimum magnitude displayed is 2.5.

Coastal Water Temperatures

Place Temperature

Stations

Nearby Weather Stations

Station Location Temp. Windchill Dew Point Humidity Wind Precip. Elev Updated Type
                   

Watches & Warnings

There are currently no watches in effect.